sensor_id;sensor_type;location;lat;lon;timestamp;P1;durP1;ratioP1;P2;durP2;ratioP2
11135;SDS011;5622;50.840;4.948;2024-01-10T00:02:21;11.70;;;6.43;;
11135;SDS011;5622;50.840;4.948;2024-01-10T00:04:48;10.67;;;6.07;;
11135;SDS011;5622;50.840;4.948;2024-01-10T00:07:15;12.77;;;6.83;;
11135;SDS011;5622;50.840;4.948;2024-01-10T00:09:42;11.23;;;6.07;;
11135;SDS011;5622;50.840;4.948;2024-01-10T00:12:10;11.40;;;6.40;;
11135;SDS011;5622;50.840;4.948;2024-01-10T00:14:38;9.57;;;5.80;;
11135;SDS011;5622;50.840;4.948;2024-01-10T00:17:05;12.60;;;6.00;;
11135;SDS011;5622;50.840;4.948;2024-01-10T00:19:34;13.40;;;6.77;;
11135;SDS011;5622;50.840;4.948;2024-01-10T00:22:01;13.33;;;6.60;;
11135;SDS011;5622;50.840;4.948;2024-01-10T00:24:28;13.23;;;6.23;;
11135;SDS011;5622;50.840;4.948;2024-01-10T00:26:55;11.17;;;6.53;;
11135;SDS011;5622;50.840;4.948;2024-01-10T00:29:22;12.07;;;6.00;;
11135;SDS011;5622;50.840;4.948;2024-01-10T00:31:49;11.87;;;6.50;;
11135;SDS011;5622;50.840;4.948;2024-01-10T00:34:17;12.10;;;6.90;;
11135;SDS011;5622;50.840;4.948;2024-01-10T00:36:46;13.43;;;6.63;;
11135;SDS011;5622;50.840;4.948;2024-01-10T00:39:15;12.70;;;6.23;;
11135;SDS011;5622;50.840;4.948;2024-01-10T00:41:42;12.57;;;6.67;;
11135;SDS011;5622;50.840;4.948;2024-01-10T00:44:09;13.20;;;7.47;;
11135;SDS011;5622;50.840;4.948;2024-01-10T00:46:36;11.80;;;6.27;;
11135;SDS011;5622;50.840;4.948;2024-01-10T00:49:03;17.57;;;6.50;;
11135;SDS011;5622;50.840;4.948;2024-01-10T00:51:30;13.43;;;6.47;;
11135;SDS011;5622;50.840;4.948;2024-01-10T00:53:59;11.80;;;6.93;;
11135;SDS011;5622;50.840;4.948;2024-01-10T00:56:26;11.00;;;6.67;;
11135;SDS011;5622;50.840;4.948;2024-01-10T00:58:53;14.27;;;6.57;;
11135;SDS011;5622;50.840;4.948;2024-01-10T01:01:23;15.63;;;6.20;;
11135;SDS011;5622;50.840;4.948;2024-01-10T01:03:50;13.50;;;7.27;;
11135;SDS011;5622;50.840;4.948;2024-01-10T01:06:17;15.87;;;6.57;;
11135;SDS011;5622;50.840;4.948;2024-01-10T01:08:44;13.07;;;6.73;;
11135;SDS011;5622;50.840;4.948;2024-01-10T01:11:12;10.43;;;6.50;;
11135;SDS011;5622;50.840;4.948;2024-01-10T01:13:40;14.33;;;6.63;;
11135;SDS011;5622;50.840;4.948;2024-01-10T01:16:07;12.67;;;7.20;;
11135;SDS011;5622;50.840;4.948;2024-01-10T01:18:37;14.37;;;6.73;;
11135;SDS011;5622;50.840;4.948;2024-01-10T01:21:04;13.07;;;6.30;;
11135;SDS011;5622;50.840;4.948;2024-01-10T01:23:31;11.33;;;6.67;;
11135;SDS011;5622;50.840;4.948;2024-01-10T01:26:00;10.77;;;6.40;;
11135;SDS011;5622;50.840;4.948;2024-01-10T01:28:28;13.70;;;6.43;;
11135;SDS011;5622;50.840;4.948;2024-01-10T01:30:55;10.83;;;6.77;;
11135;SDS011;5622;50.840;4.948;2024-01-10T01:33:22;12.13;;;6.77;;
11135;SDS011;5622;50.840;4.948;2024-01-10T01:35:49;10.43;;;6.87;;
11135;SDS011;5622;50.840;4.948;2024-01-10T01:38:18;11.37;;;5.97;;
11135;SDS011;5622;50.840;4.948;2024-01-10T01:40:45;12.93;;;6.57;;
11135;SDS011;5622;50.840;4.948;2024-01-10T01:43:19;13.60;;;6.57;;
11135;SDS011;5622;50.840;4.948;2024-01-10T01:45:49;13.10;;;6.33;;
11135;SDS011;5622;50.840;4.948;2024-01-10T01:48:18;10.63;;;6.13;;
11135;SDS011;5622;50.840;4.948;2024-01-10T01:50:46;12.73;;;7.27;;
11135;SDS011;5622;50.840;4.948;2024-01-10T01:53:17;12.90;;;6.57;;
11135;SDS011;5622;50.840;4.948;2024-01-10T01:55:45;10.37;;;6.17;;
11135;SDS011;5622;50.840;4.948;2024-01-10T01:58:13;11.83;;;6.20;;
11135;SDS011;5622;50.840;4.948;2024-01-10T02:00:40;13.07;;;6.60;;
11135;SDS011;5622;50.840;4.948;2024-01-10T02:03:10;13.20;;;6.70;;
11135;SDS011;5622;50.840;4.948;2024-01-10T02:05:37;14.10;;;6.77;;
11135;SDS011;5622;50.840;4.948;2024-01-10T02:08:04;12.73;;;7.10;;
11135;SDS011;5622;50.840;4.948;2024-01-10T02:10:32;10.67;;;6.27;;
11135;SDS011;5622;50.840;4.948;2024-01-10T02:13:00;11.10;;;6.50;;
11135;SDS011;5622;50.840;4.948;2024-01-10T02:15:27;11.47;;;6.43;;
11135;SDS011;5622;50.840;4.948;2024-01-10T02:17:54;12.23;;;6.80;;
11135;SDS011;5622;50.840;4.948;2024-01-10T02:20:23;14.77;;;7.40;;
11135;SDS011;5622;50.840;4.948;2024-01-10T02:22:50;11.57;;;6.53;;
11135;SDS011;5622;50.840;4.948;2024-01-10T02:25:23;13.47;;;7.20;;
11135;SDS011;5622;50.840;4.948;2024-01-10T02:27:50;10.03;;;6.10;;
11135;SDS011;5622;50.840;4.948;2024-01-10T02:30:17;14.03;;;6.77;;
11135;SDS011;5622;50.840;4.948;2024-01-10T02:32:43;13.33;;;7.13;;
11135;SDS011;5622;50.840;4.948;2024-01-10T02:35:10;11.13;;;6.37;;
11135;SDS011;5622;50.840;4.948;2024-01-10T02:37:38;14.57;;;6.53;;
11135;SDS011;5622;50.840;4.948;2024-01-10T02:40:08;10.13;;;6.57;;
11135;SDS011;5622;50.840;4.948;2024-01-10T02:42:37;15.20;;;7.13;;
11135;SDS011;5622;50.840;4.948;2024-01-10T02:45:06;12.03;;;6.57;;
11135;SDS011;5622;50.840;4.948;2024-01-10T02:47:33;13.07;;;6.90;;
11135;SDS011;5622;50.840;4.948;2024-01-10T02:50:01;10.77;;;6.07;;
11135;SDS011;5622;50.840;4.948;2024-01-10T02:52:29;14.00;;;7.03;;
11135;SDS011;5622;50.840;4.948;2024-01-10T02:54:56;13.23;;;6.63;;
11135;SDS011;5622;50.840;4.948;2024-01-10T02:57:23;14.00;;;6.90;;
11135;SDS011;5622;50.840;4.948;2024-01-10T02:59:52;14.30;;;7.03;;
11135;SDS011;5622;50.840;4.948;2024-01-10T03:02:19;14.43;;;6.97;;
11135;SDS011;5622;50.840;4.948;2024-01-10T03:04:48;16.27;;;6.90;;
11135;SDS011;5622;50.840;4.948;2024-01-10T03:07:15;12.73;;;7.30;;
11135;SDS011;5622;50.840;4.948;2024-01-10T03:09:42;10.37;;;6.53;;
11135;SDS011;5622;50.840;4.948;2024-01-10T03:12:09;14.40;;;6.53;;
11135;SDS011;5622;50.840;4.948;2024-01-10T03:14:37;11.03;;;7.03;;
11135;SDS011;5622;50.840;4.948;2024-01-10T03:17:06;10.50;;;6.60;;
11135;SDS011;5622;50.840;4.948;2024-01-10T03:19:33;13.10;;;7.83;;
11135;SDS011;5622;50.840;4.948;2024-01-10T03:22:02;12.93;;;6.17;;
11135;SDS011;5622;50.840;4.948;2024-01-10T03:24:29;13.00;;;7.53;;
11135;SDS011;5622;50.840;4.948;2024-01-10T03:26:57;14.90;;;7.30;;
11135;SDS011;5622;50.840;4.948;2024-01-10T03:29:24;10.30;;;6.40;;
11135;SDS011;5622;50.840;4.948;2024-01-10T03:31:51;14.33;;;6.67;;
11135;SDS011;5622;50.840;4.948;2024-01-10T03:34:20;13.63;;;7.07;;
11135;SDS011;5622;50.840;4.948;2024-01-10T03:36:47;13.47;;;7.13;;
11135;SDS011;5622;50.840;4.948;2024-01-10T03:39:14;12.77;;;7.23;;
11135;SDS011;5622;50.840;4.948;2024-01-10T03:41:41;14.10;;;6.83;;
11135;SDS011;5622;50.840;4.948;2024-01-10T03:44:08;13.27;;;6.53;;
11135;SDS011;5622;50.840;4.948;2024-01-10T03:46:35;12.20;;;6.63;;
11135;SDS011;5622;50.840;4.948;2024-01-10T03:49:02;13.13;;;6.83;;
11135;SDS011;5622;50.840;4.948;2024-01-10T03:51:31;12.47;;;7.23;;
11135;SDS011;5622;50.840;4.948;2024-01-10T03:53:58;13.23;;;6.93;;
11135;SDS011;5622;50.840;4.948;2024-01-10T03:56:25;13.27;;;7.33;;
11135;SDS011;5622;50.840;4.948;2024-01-10T03:58:52;11.93;;;6.03;;
11135;SDS011;5622;50.840;4.948;2024-01-10T04:01:21;13.93;;;6.90;;
11135;SDS011;5622;50.840;4.948;2024-01-10T04:03:49;11.77;;;6.47;;
11135;SDS011;5622;50.840;4.948;2024-01-10T04:06:16;12.87;;;6.53;;
11135;SDS011;5622;50.840;4.948;2024-01-10T04:08:45;12.03;;;6.53;;
11135;SDS011;5622;50.840;4.948;2024-01-10T04:11:12;11.57;;;6.83;;
11135;SDS011;5622;50.840;4.948;2024-01-10T04:13:39;12.03;;;6.73;;
11135;SDS011;5622;50.840;4.948;2024-01-10T04:16:06;12.57;;;6.80;;
11135;SDS011;5622;50.840;4.948;2024-01-10T04:18:33;13.23;;;6.80;;
11135;SDS011;5622;50.840;4.948;2024-01-10T04:21:01;12.80;;;6.63;;
11135;SDS011;5622;50.840;4.948;2024-01-10T04:23:29;13.23;;;6.70;;
11135;SDS011;5622;50.840;4.948;2024-01-10T04:26:01;14.80;;;7.60;;
11135;SDS011;5622;50.840;4.948;2024-01-10T04:28:29;14.07;;;6.63;;
11135;SDS011;5622;50.840;4.948;2024-01-10T04:30:56;12.37;;;5.73;;
11135;SDS011;5622;50.840;4.948;2024-01-10T04:33:23;14.03;;;7.07;;
11135;SDS011;5622;50.840;4.948;2024-01-10T04:35:50;15.50;;;7.60;;
11135;SDS011;5622;50.840;4.948;2024-01-10T04:38:17;11.73;;;6.50;;
11135;SDS011;5622;50.840;4.948;2024-01-10T04:40:44;10.33;;;6.63;;
11135;SDS011;5622;50.840;4.948;2024-01-10T04:43:13;12.27;;;7.23;;
11135;SDS011;5622;50.840;4.948;2024-01-10T04:45:40;12.73;;;6.37;;
11135;SDS011;5622;50.840;4.948;2024-01-10T04:48:07;12.87;;;6.80;;
11135;SDS011;5622;50.840;4.948;2024-01-10T04:50:34;12.80;;;7.20;;
11135;SDS011;5622;50.840;4.948;2024-01-10T04:53:01;15.60;;;7.30;;
11135;SDS011;5622;50.840;4.948;2024-01-10T04:55:28;15.00;;;7.17;;
11135;SDS011;5622;50.840;4.948;2024-01-10T04:57:58;14.03;;;7.17;;
11135;SDS011;5622;50.840;4.948;2024-01-10T05:00:27;14.13;;;7.13;;
11135;SDS011;5622;50.840;4.948;2024-01-10T05:02:55;12.27;;;6.90;;
11135;SDS011;5622;50.840;4.948;2024-01-10T05:05:22;15.90;;;7.77;;
11135;SDS011;5622;50.840;4.948;2024-01-10T05:07:49;13.30;;;7.43;;
11135;SDS011;5622;50.840;4.948;2024-01-10T05:10:17;15.33;;;6.90;;
11135;SDS011;5622;50.840;4.948;2024-01-10T05:12:44;13.63;;;7.50;;
11135;SDS011;5622;50.840;4.948;2024-01-10T05:15:11;14.90;;;7.20;;
11135;SDS011;5622;50.840;4.948;2024-01-10T05:17:39;12.37;;;6.83;;
11135;SDS011;5622;50.840;4.948;2024-01-10T05:20:07;11.47;;;6.67;;
11135;SDS011;5622;50.840;4.948;2024-01-10T05:22:34;11.20;;;6.73;;
11135;SDS011;5622;50.840;4.948;2024-01-10T05:25:02;11.70;;;6.37;;
11135;SDS011;5622;50.840;4.948;2024-01-10T05:27:30;11.93;;;7.13;;
11135;SDS011;5622;50.840;4.948;2024-01-10T05:29:57;12.13;;;6.47;;
11135;SDS011;5622;50.840;4.948;2024-01-10T05:32:25;13.80;;;6.73;;
11135;SDS011;5622;50.840;4.948;2024-01-10T05:34:54;11.37;;;6.40;;
11135;SDS011;5622;50.840;4.948;2024-01-10T05:37:21;11.43;;;6.50;;
11135;SDS011;5622;50.840;4.948;2024-01-10T05:39:48;14.43;;;7.10;;
11135;SDS011;5622;50.840;4.948;2024-01-10T05:42:15;13.60;;;6.87;;
11135;SDS011;5622;50.840;4.948;2024-01-10T05:44:43;12.20;;;7.30;;
11135;SDS011;5622;50.840;4.948;2024-01-10T05:47:10;12.57;;;7.17;;
11135;SDS011;5622;50.840;4.948;2024-01-10T05:49:38;14.70;;;6.67;;
11135;SDS011;5622;50.840;4.948;2024-01-10T05:52:07;13.83;;;6.80;;
11135;SDS011;5622;50.840;4.948;2024-01-10T05:54:34;14.10;;;6.60;;
11135;SDS011;5622;50.840;4.948;2024-01-10T05:57:01;14.27;;;7.40;;
11135;SDS011;5622;50.840;4.948;2024-01-10T05:59:28;14.87;;;6.53;;
11135;SDS011;5622;50.840;4.948;2024-01-10T06:01:56;13.33;;;6.93;;
11135;SDS011;5622;50.840;4.948;2024-01-10T06:04:23;12.20;;;7.03;;
11135;SDS011;5622;50.840;4.948;2024-01-10T06:06:53;14.30;;;6.97;;
11135;SDS011;5622;50.840;4.948;2024-01-10T06:09:21;15.37;;;6.23;;
11135;SDS011;5622;50.840;4.948;2024-01-10T06:11:48;18.83;;;7.23;;
11135;SDS011;5622;50.840;4.948;2024-01-10T06:14:17;13.50;;;6.90;;
11135;SDS011;5622;50.840;4.948;2024-01-10T06:16:45;19.70;;;7.20;;
11135;SDS011;5622;50.840;4.948;2024-01-10T06:19:12;14.43;;;7.20;;
11135;SDS011;5622;50.840;4.948;2024-01-10T06:21:39;15.67;;;7.60;;
11135;SDS011;5622;50.840;4.948;2024-01-10T06:24:07;13.83;;;6.80;;
11135;SDS011;5622;50.840;4.948;2024-01-10T06:26:35;15.50;;;7.00;;
11135;SDS011;5622;50.840;4.948;2024-01-10T06:29:03;13.73;;;7.27;;
11135;SDS011;5622;50.840;4.948;2024-01-10T06:31:30;14.30;;;7.60;;
11135;SDS011;5622;50.840;4.948;2024-01-10T06:33:57;10.87;;;6.73;;
11135;SDS011;5622;50.840;4.948;2024-01-10T06:36:24;13.23;;;7.13;;
11135;SDS011;5622;50.840;4.948;2024-01-10T06:38:51;15.77;;;7.47;;
11135;SDS011;5622;50.840;4.948;2024-01-10T06:41:20;13.77;;;7.00;;
11135;SDS011;5622;50.840;4.948;2024-01-10T06:43:51;12.30;;;6.80;;
11135;SDS011;5622;50.840;4.948;2024-01-10T06:46:18;11.10;;;6.03;;
11135;SDS011;5622;50.840;4.948;2024-01-10T06:48:45;12.23;;;6.70;;
11135;SDS011;5622;50.840;4.948;2024-01-10T06:51:13;15.27;;;6.70;;
11135;SDS011;5622;50.840;4.948;2024-01-10T06:53:40;12.17;;;6.90;;
11135;SDS011;5622;50.840;4.948;2024-01-10T06:56:07;16.63;;;7.30;;
11135;SDS011;5622;50.840;4.948;2024-01-10T06:58:36;13.27;;;6.33;;
11135;SDS011;5622;50.840;4.948;2024-01-10T07:01:10;12.10;;;6.17;;
11135;SDS011;5622;50.840;4.948;2024-01-10T07:03:38;12.37;;;7.13;;
11135;SDS011;5622;50.840;4.948;2024-01-10T07:06:06;9.70;;;5.97;;
11135;SDS011;5622;50.840;4.948;2024-01-10T07:08:33;17.80;;;7.33;;
11135;SDS011;5622;50.840;4.948;2024-01-10T07:11:00;11.37;;;6.40;;
11135;SDS011;5622;50.840;4.948;2024-01-10T07:13:45;13.00;;;6.40;;
11135;SDS011;5622;50.840;4.948;2024-01-10T07:16:15;10.33;;;6.30;;
11135;SDS011;5622;50.840;4.948;2024-01-10T07:18:43;14.97;;;7.20;;
11135;SDS011;5622;50.840;4.948;2024-01-10T07:21:11;14.43;;;7.17;;
11135;SDS011;5622;50.840;4.948;2024-01-10T07:23:38;14.90;;;7.13;;
11135;SDS011;5622;50.840;4.948;2024-01-10T07:26:08;12.20;;;6.53;;
11135;SDS011;5622;50.840;4.948;2024-01-10T07:28:39;15.33;;;7.60;;
11135;SDS011;5622;50.840;4.948;2024-01-10T07:31:07;11.23;;;6.50;;
11135;SDS011;5622;50.840;4.948;2024-01-10T07:33:35;15.13;;;7.57;;
11135;SDS011;5622;50.840;4.948;2024-01-10T07:36:03;14.53;;;6.50;;
11135;SDS011;5622;50.840;4.948;2024-01-10T07:38:30;12.43;;;6.90;;
11135;SDS011;5622;50.840;4.948;2024-01-10T07:40:57;13.70;;;7.47;;
11135;SDS011;5622;50.840;4.948;2024-01-10T07:43:24;16.00;;;7.30;;
11135;SDS011;5622;50.840;4.948;2024-01-10T07:45:53;11.20;;;6.73;;
11135;SDS011;5622;50.840;4.948;2024-01-10T07:48:20;15.30;;;6.43;;
11135;SDS011;5622;50.840;4.948;2024-01-10T07:50:51;11.00;;;6.43;;
11135;SDS011;5622;50.840;4.948;2024-01-10T07:53:18;15.47;;;7.03;;
11135;SDS011;5622;50.840;4.948;2024-01-10T07:55:45;15.40;;;7.70;;
11135;SDS011;5622;50.840;4.948;2024-01-10T07:58:13;11.70;;;6.33;;
11135;SDS011;5622;50.840;4.948;2024-01-10T08:00:41;12.77;;;6.70;;
11135;SDS011;5622;50.840;4.948;2024-01-10T08:03:08;13.37;;;7.30;;
11135;SDS011;5622;50.840;4.948;2024-01-10T08:05:37;11.67;;;6.73;;
11135;SDS011;5622;50.840;4.948;2024-01-10T08:08:06;10.83;;;6.20;;
11135;SDS011;5622;50.840;4.948;2024-01-10T08:10:34;14.13;;;7.00;;
11135;SDS011;5622;50.840;4.948;2024-01-10T08:13:01;13.03;;;7.37;;
11135;SDS011;5622;50.840;4.948;2024-01-10T08:15:29;12.27;;;7.13;;
11135;SDS011;5622;50.840;4.948;2024-01-10T08:17:56;14.37;;;7.33;;
11135;SDS011;5622;50.840;4.948;2024-01-10T08:20:24;12.50;;;7.30;;
11135;SDS011;5622;50.840;4.948;2024-01-10T08:22:51;16.37;;;7.07;;
11135;SDS011;5622;50.840;4.948;2024-01-10T08:25:21;13.53;;;7.13;;
11135;SDS011;5622;50.840;4.948;2024-01-10T08:27:48;16.83;;;7.60;;
11135;SDS011;5622;50.840;4.948;2024-01-10T08:30:17;12.03;;;7.40;;
11135;SDS011;5622;50.840;4.948;2024-01-10T08:32:44;15.50;;;7.93;;
11135;SDS011;5622;50.840;4.948;2024-01-10T08:35:11;13.00;;;7.73;;
11135;SDS011;5622;50.840;4.948;2024-01-10T08:37:38;22.13;;;7.77;;
11135;SDS011;5622;50.840;4.948;2024-01-10T08:40:10;14.80;;;7.93;;
11135;SDS011;5622;50.840;4.948;2024-01-10T08:42:42;12.37;;;6.80;;
11135;SDS011;5622;50.840;4.948;2024-01-10T08:45:09;11.23;;;7.03;;
11135;SDS011;5622;50.840;4.948;2024-01-10T08:47:38;13.90;;;7.60;;
11135;SDS011;5622;50.840;4.948;2024-01-10T08:50:06;13.70;;;7.60;;
11135;SDS011;5622;50.840;4.948;2024-01-10T08:52:37;14.37;;;8.10;;
11135;SDS011;5622;50.840;4.948;2024-01-10T08:55:05;13.23;;;7.20;;
11135;SDS011;5622;50.840;4.948;2024-01-10T08:57:32;13.03;;;7.53;;
11135;SDS011;5622;50.840;4.948;2024-01-10T09:00:01;15.30;;;7.57;;
11135;SDS011;5622;50.840;4.948;2024-01-10T09:02:31;13.63;;;7.23;;
11135;SDS011;5622;50.840;4.948;2024-01-10T09:05:02;15.93;;;7.67;;
11135;SDS011;5622;50.840;4.948;2024-01-10T09:07:33;12.00;;;7.60;;
11135;SDS011;5622;50.840;4.948;2024-01-10T09:10:00;11.33;;;6.67;;
11135;SDS011;5622;50.840;4.948;2024-01-10T09:12:30;13.03;;;6.93;;
11135;SDS011;5622;50.840;4.948;2024-01-10T09:14:57;16.70;;;7.67;;
11135;SDS011;5622;50.840;4.948;2024-01-10T09:17:27;15.80;;;7.70;;
11135;SDS011;5622;50.840;4.948;2024-01-10T09:19:57;12.00;;;7.70;;
11135;SDS011;5622;50.840;4.948;2024-01-10T09:22:24;13.60;;;7.40;;
11135;SDS011;5622;50.840;4.948;2024-01-10T09:24:51;10.27;;;6.30;;
11135;SDS011;5622;50.840;4.948;2024-01-10T09:27:18;13.00;;;7.93;;
11135;SDS011;5622;50.840;4.948;2024-01-10T09:29:45;14.27;;;8.43;;
11135;SDS011;5622;50.840;4.948;2024-01-10T09:32:16;13.17;;;7.20;;
11135;SDS011;5622;50.840;4.948;2024-01-10T09:34:48;14.77;;;7.27;;
11135;SDS011;5622;50.840;4.948;2024-01-10T09:37:15;14.93;;;7.90;;
11135;SDS011;5622;50.840;4.948;2024-01-10T09:39:42;12.60;;;7.40;;
11135;SDS011;5622;50.840;4.948;2024-01-10T09:42:09;13.97;;;8.03;;
11135;SDS011;5622;50.840;4.948;2024-01-10T09:44:36;16.10;;;7.57;;
11135;SDS011;5622;50.840;4.948;2024-01-10T09:47:04;12.67;;;7.73;;
11135;SDS011;5622;50.840;4.948;2024-01-10T09:49:31;11.67;;;7.17;;
11135;SDS011;5622;50.840;4.948;2024-01-10T09:52:01;16.57;;;8.37;;
11135;SDS011;5622;50.840;4.948;2024-01-10T09:54:31;13.77;;;8.10;;
11135;SDS011;5622;50.840;4.948;2024-01-10T09:57:01;14.53;;;8.17;;
11135;SDS011;5622;50.840;4.948;2024-01-10T09:59:28;18.13;;;8.63;;
11135;SDS011;5622;50.840;4.948;2024-01-10T10:01:59;15.60;;;8.87;;
11135;SDS011;5622;50.840;4.948;2024-01-10T10:04:29;13.43;;;7.43;;
11135;SDS011;5622;50.840;4.948;2024-01-10T10:07:03;16.70;;;8.40;;
11135;SDS011;5622;50.840;4.948;2024-01-10T10:09:33;19.63;;;8.97;;
11135;SDS011;5622;50.840;4.948;2024-01-10T10:12:03;14.50;;;8.30;;
11135;SDS011;5622;50.840;4.948;2024-01-10T10:14:31;15.93;;;7.53;;
11135;SDS011;5622;50.840;4.948;2024-01-10T10:17:13;16.20;;;8.63;;
11135;SDS011;5622;50.840;4.948;2024-01-10T10:19:41;17.83;;;9.00;;
11135;SDS011;5622;50.840;4.948;2024-01-10T10:22:11;14.90;;;8.27;;
11135;SDS011;5622;50.840;4.948;2024-01-10T10:24:41;14.67;;;8.47;;
11135;SDS011;5622;50.840;4.948;2024-01-10T10:27:11;15.40;;;8.27;;
11135;SDS011;5622;50.840;4.948;2024-01-10T10:29:40;14.90;;;8.10;;
11135;SDS011;5622;50.840;4.948;2024-01-10T10:32:08;17.80;;;8.97;;
11135;SDS011;5622;50.840;4.948;2024-01-10T10:34:35;15.30;;;8.67;;
11135;SDS011;5622;50.840;4.948;2024-01-10T10:37:13;16.80;;;8.50;;
11135;SDS011;5622;50.840;4.948;2024-01-10T10:39:40;14.23;;;8.07;;
11135;SDS011;5622;50.840;4.948;2024-01-10T10:42:08;15.17;;;8.10;;
11135;SDS011;5622;50.840;4.948;2024-01-10T10:44:35;14.10;;;8.23;;
11135;SDS011;5622;50.840;4.948;2024-01-10T10:47:08;16.43;;;8.83;;
11135;SDS011;5622;50.840;4.948;2024-01-10T10:49:37;18.40;;;8.10;;
11135;SDS011;5622;50.840;4.948;2024-01-10T10:52:13;16.77;;;8.67;;
11135;SDS011;5622;50.840;4.948;2024-01-10T10:54:41;11.93;;;7.50;;
11135;SDS011;5622;50.840;4.948;2024-01-10T10:57:10;12.97;;;7.97;;
11135;SDS011;5622;50.840;4.948;2024-01-10T10:59:41;17.93;;;8.73;;
11135;SDS011;5622;50.840;4.948;2024-01-10T11:02:11;18.13;;;9.07;;
11135;SDS011;5622;50.840;4.948;2024-01-10T11:04:44;17.17;;;8.93;;
11135;SDS011;5622;50.840;4.948;2024-01-10T11:07:13;16.60;;;7.90;;
11135;SDS011;5622;50.840;4.948;2024-01-10T11:09:42;15.70;;;8.73;;
11135;SDS011;5622;50.840;4.948;2024-01-10T11:12:15;14.87;;;8.27;;
11135;SDS011;5622;50.840;4.948;2024-01-10T11:14:57;16.50;;;8.40;;
11135;SDS011;5622;50.840;4.948;2024-01-10T11:17:47;15.33;;;8.47;;
11135;SDS011;5622;50.840;4.948;2024-01-10T11:20:40;13.63;;;8.23;;
11135;SDS011;5622;50.840;4.948;2024-01-10T11:23:39;16.50;;;8.87;;
11135;SDS011;5622;50.840;4.948;2024-01-10T11:26:13;17.00;;;9.30;;
11135;SDS011;5622;50.840;4.948;2024-01-10T11:28:43;17.30;;;8.17;;
11135;SDS011;5622;50.840;4.948;2024-01-10T11:31:13;16.60;;;8.87;;
11135;SDS011;5622;50.840;4.948;2024-01-10T11:33:41;16.57;;;8.93;;
11135;SDS011;5622;50.840;4.948;2024-01-10T11:36:11;14.30;;;7.53;;
11135;SDS011;5622;50.840;4.948;2024-01-10T11:38:42;16.87;;;9.23;;
11135;SDS011;5622;50.840;4.948;2024-01-10T11:41:15;15.60;;;9.43;;
11135;SDS011;5622;50.840;4.948;2024-01-10T11:46:52;15.90;;;8.90;;
11135;SDS011;5622;50.840;4.948;2024-01-10T11:49:22;14.00;;;8.83;;
11135;SDS011;5622;50.840;4.948;2024-01-10T11:51:52;15.43;;;8.43;;
11135;SDS011;5622;50.840;4.948;2024-01-10T11:54:40;16.97;;;9.37;;
11135;SDS011;5622;50.840;4.948;2024-01-10T11:57:10;13.73;;;7.83;;
11135;SDS011;5622;50.840;4.948;2024-01-10T11:59:41;14.83;;;8.77;;
11135;SDS011;5622;50.840;4.948;2024-01-10T12:02:11;14.13;;;8.63;;
11135;SDS011;5622;50.840;4.948;2024-01-10T12:04:39;16.97;;;9.17;;
11135;SDS011;5622;50.840;4.948;2024-01-10T12:07:08;13.57;;;7.80;;
11135;SDS011;5622;50.840;4.948;2024-01-10T12:09:39;14.00;;;8.00;;
11135;SDS011;5622;50.840;4.948;2024-01-10T12:12:07;12.63;;;8.27;;
11135;SDS011;5622;50.840;4.948;2024-01-10T12:14:36;18.57;;;8.63;;
11135;SDS011;5622;50.840;4.948;2024-01-10T12:17:05;17.80;;;9.30;;
11135;SDS011;5622;50.840;4.948;2024-01-10T12:19:33;16.73;;;8.80;;
11135;SDS011;5622;50.840;4.948;2024-01-10T12:22:02;16.43;;;9.17;;
11135;SDS011;5622;50.840;4.948;2024-01-10T12:24:30;17.03;;;9.10;;
11135;SDS011;5622;50.840;4.948;2024-01-10T12:26:59;16.67;;;9.50;;
11135;SDS011;5622;50.840;4.948;2024-01-10T12:29:28;15.57;;;8.97;;
11135;SDS011;5622;50.840;4.948;2024-01-10T12:31:55;17.23;;;9.10;;
11135;SDS011;5622;50.840;4.948;2024-01-10T12:34:25;17.83;;;9.23;;
11135;SDS011;5622;50.840;4.948;2024-01-10T12:36:54;14.47;;;8.77;;
11135;SDS011;5622;50.840;4.948;2024-01-10T12:39:21;18.13;;;9.50;;
11135;SDS011;5622;50.840;4.948;2024-01-10T12:41:50;19.47;;;9.13;;
11135;SDS011;5622;50.840;4.948;2024-01-10T12:44:19;21.50;;;9.97;;
11135;SDS011;5622;50.840;4.948;2024-01-10T12:46:50;20.33;;;9.13;;
11135;SDS011;5622;50.840;4.948;2024-01-10T12:49:22;16.70;;;9.50;;
11135;SDS011;5622;50.840;4.948;2024-01-10T12:51:49;16.03;;;8.57;;
11135;SDS011;5622;50.840;4.948;2024-01-10T12:54:16;18.77;;;9.80;;
11135;SDS011;5622;50.840;4.948;2024-01-10T12:56:43;19.87;;;9.03;;
11135;SDS011;5622;50.840;4.948;2024-01-10T12:59:12;14.83;;;8.97;;
11135;SDS011;5622;50.840;4.948;2024-01-10T13:01:41;18.40;;;9.50;;
11135;SDS011;5622;50.840;4.948;2024-01-10T13:04:08;16.23;;;9.73;;
11135;SDS011;5622;50.840;4.948;2024-01-10T13:06:37;17.50;;;8.97;;
11135;SDS011;5622;50.840;4.948;2024-01-10T13:09:05;20.13;;;9.63;;
11135;SDS011;5622;50.840;4.948;2024-01-10T13:11:32;16.60;;;8.97;;
11135;SDS011;5622;50.840;4.948;2024-01-10T13:13:59;17.27;;;9.00;;
11135;SDS011;5622;50.840;4.948;2024-01-10T13:16:27;17.20;;;9.30;;
11135;SDS011;5622;50.840;4.948;2024-01-10T13:18:55;17.70;;;9.53;;
11135;SDS011;5622;50.840;4.948;2024-01-10T13:21:24;21.70;;;10.63;;
11135;SDS011;5622;50.840;4.948;2024-01-10T13:23:51;17.37;;;9.73;;
11135;SDS011;5622;50.840;4.948;2024-01-10T13:26:19;15.77;;;9.60;;
11135;SDS011;5622;50.840;4.948;2024-01-10T13:28:46;20.40;;;9.70;;
11135;SDS011;5622;50.840;4.948;2024-01-10T13:31:13;13.50;;;8.90;;
11135;SDS011;5622;50.840;4.948;2024-01-10T13:33:41;16.03;;;9.70;;
11135;SDS011;5622;50.840;4.948;2024-01-10T13:36:10;16.47;;;9.07;;
11135;SDS011;5622;50.840;4.948;2024-01-10T13:38:43;18.13;;;9.27;;
11135;SDS011;5622;50.840;4.948;2024-01-10T13:41:10;23.10;;;9.93;;
11135;SDS011;5622;50.840;4.948;2024-01-10T13:43:39;16.07;;;9.43;;
11135;SDS011;5622;50.840;4.948;2024-01-10T13:46:07;17.37;;;9.10;;
11135;SDS011;5622;50.840;4.948;2024-01-10T13:48:34;20.20;;;9.87;;
11135;SDS011;5622;50.840;4.948;2024-01-10T13:51:01;15.63;;;9.57;;
11135;SDS011;5622;50.840;4.948;2024-01-10T13:53:30;21.03;;;10.53;;
11135;SDS011;5622;50.840;4.948;2024-01-10T13:56:00;18.50;;;10.03;;
11135;SDS011;5622;50.840;4.948;2024-01-10T13:58:28;15.53;;;9.60;;
11135;SDS011;5622;50.840;4.948;2024-01-10T14:00:57;23.83;;;10.47;;
11135;SDS011;5622;50.840;4.948;2024-01-10T14:03:25;18.97;;;10.10;;
11135;SDS011;5622;50.840;4.948;2024-01-10T14:05:52;21.30;;;10.27;;
11135;SDS011;5622;50.840;4.948;2024-01-10T14:26:32;15.80;;;9.43;;
11135;SDS011;5622;50.840;4.948;2024-01-10T14:29:00;16.07;;;9.17;;
11135;SDS011;5622;50.840;4.948;2024-01-10T14:31:27;15.80;;;9.17;;
11135;SDS011;5622;50.840;4.948;2024-01-10T14:33:54;16.03;;;9.17;;
11135;SDS011;5622;50.840;4.948;2024-01-10T14:36:22;18.73;;;10.50;;
11135;SDS011;5622;50.840;4.948;2024-01-10T14:38:49;19.70;;;9.73;;
11135;SDS011;5622;50.840;4.948;2024-01-10T14:41:20;17.67;;;9.07;;
11135;SDS011;5622;50.840;4.948;2024-01-10T14:43:48;16.17;;;9.27;;
11135;SDS011;5622;50.840;4.948;2024-01-10T14:46:16;15.13;;;9.23;;
11135;SDS011;5622;50.840;4.948;2024-01-10T14:48:43;17.73;;;10.10;;
11135;SDS011;5622;50.840;4.948;2024-01-10T14:51:10;14.33;;;9.20;;
11135;SDS011;5622;50.840;4.948;2024-01-10T14:53:37;15.87;;;10.10;;
11135;SDS011;5622;50.840;4.948;2024-01-10T14:56:05;21.63;;;11.03;;
11135;SDS011;5622;50.840;4.948;2024-01-10T14:58:33;21.37;;;11.70;;
11135;SDS011;5622;50.840;4.948;2024-01-10T15:01:02;21.33;;;10.17;;
11135;SDS011;5622;50.840;4.948;2024-01-10T15:03:29;18.13;;;10.47;;
11135;SDS011;5622;50.840;4.948;2024-01-10T15:06:00;19.23;;;10.07;;
11135;SDS011;5622;50.840;4.948;2024-01-10T15:08:27;21.40;;;10.77;;
11135;SDS011;5622;50.840;4.948;2024-01-10T15:10:55;15.90;;;9.43;;
11135;SDS011;5622;50.840;4.948;2024-01-10T15:13:22;15.57;;;9.73;;
11135;SDS011;5622;50.840;4.948;2024-01-10T15:15:49;22.20;;;10.63;;
11135;SDS011;5622;50.840;4.948;2024-01-10T15:18:19;20.70;;;10.37;;